»·PEaware :: N5939V KMHV-KOXR

N5939V :: KMHV-KOXR

FLIGHT INFORMATION

Flight Status: Arrived
Operator: Privately registered:
United States
More flights under this callsign
Pilot: Anonymous 30260 (30260)
Aircraft: SOCATA TBM-900
(TBM9)
More flights by this aircraft type
Origin: KMHV Mojave
United States
Destination: KOXR Oxnard
United States
More flights between these airports :: More routes between these airports
Route: +JERID5 JERID V197 PMD V386 FIM
File this flight plan on PilotEdge
Remarks:
Altitude:
(Current/Filed)
12,000ft
Speed:
(Current/Filed)
268kts
Departed: 18-Sep-20 01:58 PM
Arrived: 18-Sep-20 02:29 PM
Distance/Time
Traveled:
73nm/0:30
Distance/Time
To Go:
Arrived

Flight Plot

Page will automatically refresh every two minutes.

Flight plan parsing failed; only flown route is shown


Map Options




Map Legend


Flown Route
Filed Route
Departure Airport
Arrival Airport
Navaid (VOR, NDB)
Fix

Horizontal Profiles

Position Reports

Time Latitude Longitude Heading Altitude Ground
Speed
18-Sep-20 13:38 35.056972 -118.162773 89 2768ft 0kts
18-Sep-20 13:39 35.056972 -118.162773 89 2768ft 0kts
18-Sep-20 13:40 35.056972 -118.162773 89 2768ft 0kts
18-Sep-20 13:41 35.056972 -118.162773 89 2768ft 0kts
18-Sep-20 13:42 35.056972 -118.162773 89 2768ft 0kts
18-Sep-20 13:43 35.056972 -118.162773 89 2768ft 0kts
18-Sep-20 13:44 35.056972 -118.162773 89 2768ft 0kts
18-Sep-20 13:45 35.056972 -118.162773 89 2768ft 0kts
18-Sep-20 13:46 35.056972 -118.162773 89 2768ft 0kts
18-Sep-20 13:47 35.056972 -118.162773 89 2768ft 0kts
18-Sep-20 13:48 35.056972 -118.162773 89 2768ft 0kts
18-Sep-20 13:49 35.056972 -118.162773 89 2768ft 0kts
18-Sep-20 13:50 35.056972 -118.162773 89 2768ft 0kts
18-Sep-20 13:51 35.057404 -118.162324 25 2768ft 10kts
18-Sep-20 13:52 35.058029 -118.157736 359 2764ft 8kts
18-Sep-20 13:53 35.058597 -118.157802 1 2765ft 5kts
18-Sep-20 13:54 35.062501 -118.156661 14 2770ft 14kts
18-Sep-20 13:55 35.065053 -118.156075 51 2778ft 17kts
18-Sep-20 13:56 35.067301 -118.152608 232 2774ft 0kts
18-Sep-20 13:57 35.059000 -118.165354 234 3109ft 114kts
18-Sep-20 13:58 35.029104 -118.202880 230 5353ft 150kts
18-Sep-20 13:59 34.995487 -118.241150 225 7380ft 175kts
18-Sep-20 14:00 34.956598 -118.284782 223 9208ft 182kts
18-Sep-20 14:01 34.916730 -118.329458 221 11043ft 185kts
18-Sep-20 14:02 34.871946 -118.369411 178 11949ft 220kts
18-Sep-20 14:03 34.822179 -118.312277 138 11923ft 257kts
18-Sep-20 14:04 34.771982 -118.246715 138 11922ft 265kts
18-Sep-20 14:05 34.721210 -118.180549 138 11932ft 266kts
18-Sep-20 14:06 34.670040 -118.113997 138 11941ft 266kts
18-Sep-20 14:07 34.611986 -118.091613 227 11927ft 249kts
18-Sep-20 14:08 34.594660 -118.174491 243 11939ft 253kts
18-Sep-20 14:09 34.567153 -118.256921 244 11913ft 254kts
18-Sep-20 14:10 34.540180 -118.337691 243 12059ft 249kts
18-Sep-20 14:11 34.513263 -118.418024 243 12021ft 253kts
18-Sep-20 14:12 34.483637 -118.506223 244 10416ft 279kts
18-Sep-20 14:13 34.452965 -118.597226 244 8851ft 281kts
18-Sep-20 14:14 34.422560 -118.687161 244 7285ft 275kts
18-Sep-20 14:15 34.393367 -118.773335 245 5995ft 261kts
18-Sep-20 14:16 34.346295 -118.828823 182 5438ft 261kts
18-Sep-20 14:17 34.269529 -118.828412 181 4224ft 259kts
18-Sep-20 14:18 34.201630 -118.843313 231 3988ft 237kts
18-Sep-20 14:19 34.159013 -118.909202 231 3994ft 237kts
18-Sep-20 14:20 34.137546 -118.982566 281 4305ft 236kts
18-Sep-20 14:21 34.156758 -119.048262 329 4264ft 190kts
18-Sep-20 14:22 34.198255 -119.020467 7 4258ft 176kts
18-Sep-20 14:23 34.210806 -119.057824 264 3369ft 138kts
18-Sep-20 14:24 34.201187 -119.102235 260 1888ft 124kts
18-Sep-20 14:25 34.200281 -119.143180 268 1051ft 95kts
18-Sep-20 14:26 34.200555 -119.174331 270 485ft 92kts
18-Sep-20 14:27 34.200782 -119.203141 268 39ft 47kts
18-Sep-20 14:28 34.199708 -119.207100 181 36ft 8kts
18-Sep-20 14:29 34.199258 -119.206763 89 36ft 0kts
18-Sep-20 14:30 34.199258 -119.206763 89 36ft 0kts
18-Sep-20 14:31 34.199258 -119.206763 89 36ft 0kts
18-Sep-20 14:32 34.199258 -119.206763 89 36ft 0kts
18-Sep-20 14:33 34.199258 -119.206763 89 36ft 0kts
18-Sep-20 14:34 34.199258 -119.206763 89 36ft 0kts

Navigation Log

Ident Type
Flight plan parsing failed, navigation log unavailable